Time;durP1;ratioP1;P1;durP2;ratioP2;P2;SDS_P1;SDS_P2;PMS_P1;PMS_P2;Temp;Humidity;BMP_temperature;BMP_pressure;BME280_temperature;BME280_humidity;BME280_pressure;Samples;Min_cycle;Max_cycle;Signal;HPM_P1;HPM_P2
2021/06/26 00:02:15;;;;;;;4.03;1.42;;;20.40;99.90;;;;;;5087839;28;20373;-64
2021/06/26 00:04:42;;;;;;;2.17;1.20;;;20.40;99.90;;;;;;5081627;28;20032;-64
2021/06/26 00:07:08;;;;;;;1.52;1.13;;;20.40;99.90;;;;;;5093612;28;20094;-66
2021/06/26 00:09:33;;;;;;;1.90;1.40;;;20.30;99.90;;;;;;5092005;28;20032;-65
2021/06/26 00:11:59;;;;;;;1.60;1.25;;;20.40;99.90;;;;;;5073442;28;20024;-63
2021/06/26 00:14:25;;;;;;;1.52;1.27;;;20.30;99.90;;;;;;5078597;28;20013;-63
2021/06/26 00:16:51;;;;;;;1.95;1.25;;;20.30;99.90;;;;;;5087553;28;20484;-64
2021/06/26 00:19:16;;;;;;;1.90;1.40;;;20.30;99.90;;;;;;5073341;28;20013;-62
2021/06/26 00:21:42;;;;;;;1.20;1.10;;;20.30;99.90;;;;;;5083846;28;20028;-63
2021/06/26 00:24:08;;;;;;;2.25;1.30;;;20.30;99.90;;;;;;5075157;28;20485;-63
2021/06/26 00:26:33;;;;;;;1.25;1.15;;;20.30;99.90;;;;;;5093140;28;20046;-65
2021/06/26 00:28:59;;;;;;;1.83;1.20;;;20.30;99.90;;;;;;5093407;28;20027;-63
2021/06/26 00:31:24;;;;;;;2.83;1.40;;;20.30;99.90;;;;;;5092391;28;20043;-63
2021/06/26 00:33:50;;;;;;;1.90;1.30;;;20.30;99.90;;;;;;5091714;28;20035;-65
2021/06/26 00:36:16;;;;;;;1.83;1.25;;;20.30;99.90;;;;;;5073234;28;20043;-67
2021/06/26 00:38:41;;;;;;;2.97;1.38;;;20.20;99.90;;;;;;5072903;28;20021;-64
2021/06/26 00:41:07;;;;;;;1.40;1.05;;;20.30;99.90;;;;;;5071769;28;20036;-64
2021/06/26 00:43:33;;;;;;;1.50;1.20;;;20.20;99.90;;;;;;5074666;28;20474;-65
2021/06/26 00:46:00;;;;;;;1.58;1.33;;;20.20;99.90;;;;;;5092945;28;20387;-66
2021/06/26 00:48:25;;;;;;;1.27;1.13;;;20.20;99.90;;;;;;5091958;28;20034;-64
2021/06/26 00:50:51;;;;;;;1.73;1.30;;;20.20;99.90;;;;;;5087373;28;20036;-66
2021/06/26 00:53:17;;;;;;;2.13;1.38;;;20.20;99.90;;;;;;5072912;28;20074;-63
2021/06/26 00:55:52;;;;;;;2.35;1.23;;;20.20;99.90;;;;;;5072149;28;20025;-64
2021/06/26 00:58:19;;;;;;;2.92;1.20;;;20.20;99.90;;;;;;5076411;28;20020;-64
2021/06/26 01:00:45;;;;;;;1.77;1.40;;;20.20;99.90;;;;;;5087855;28;20041;-64
2021/06/26 01:03:11;;;;;;;2.38;1.40;;;20.20;99.90;;;;;;5072429;28;20021;-66
2021/06/26 01:05:37;;;;;;;1.75;1.17;;;20.20;99.90;;;;;;5071867;28;20032;-62
2021/06/26 01:08:03;;;;;;;1.98;1.20;;;20.20;99.90;;;;;;5085721;28;20442;-63
2021/06/26 01:10:28;;;;;;;2.00;1.67;;;20.20;99.90;;;;;;5082231;28;20068;-64
2021/06/26 01:12:56;;;;;;;1.63;1.20;;;20.20;99.90;;;;;;5077796;28;20055;-64
2021/06/26 01:15:22;;;;;;;1.75;1.20;;;20.20;99.90;;;;;;5092115;28;20116;-64
2021/06/26 01:17:48;;;;;;;2.38;1.45;;;20.20;99.90;;;;;;5092405;28;20031;-63
2021/06/26 01:20:15;;;;;;;1.90;1.40;;;20.10;99.90;;;;;;5085153;28;20439;-63
2021/06/26 01:22:43;;;;;;;1.98;1.63;;;20.10;99.90;;;;;;5071540;28;20035;-66
2021/06/26 01:25:14;;;;;;;1.60;1.23;;;20.10;99.90;;;;;;5071936;28;20020;-65
2021/06/26 01:27:42;;;;;;;1.73;1.30;;;20.10;99.90;;;;;;5071636;28;20071;-63
2021/06/26 01:30:09;;;;;;;3.03;1.30;;;20.10;99.90;;;;;;5072046;28;20024;-63
2021/06/26 01:32:35;;;;;;;2.13;1.30;;;20.10;99.90;;;;;;5089339;28;20376;-64
2021/06/26 01:35:01;;;;;;;2.00;1.35;;;20.10;99.90;;;;;;5071799;28;20078;-63
2021/06/26 01:37:26;;;;;;;1.98;1.40;;;20.10;99.90;;;;;;5071623;28;20024;-64
2021/06/26 01:39:52;;;;;;;1.42;1.30;;;20.10;99.90;;;;;;5071897;28;20154;-63
2021/06/26 01:42:18;;;;;;;2.10;1.30;;;20.00;99.90;;;;;;5073507;28;20051;-63
2021/06/26 01:44:43;;;;;;;2.67;1.27;;;20.10;99.90;;;;;;5073160;28;20500;-63
2021/06/26 01:47:09;;;;;;;1.40;1.27;;;20.10;99.90;;;;;;5091044;28;20141;-62
2021/06/26 01:49:38;;;;;;;1.45;1.35;;;20.10;99.90;;;;;;5087976;28;20029;-64
2021/06/26 01:52:07;;;;;;;1.63;1.40;;;20.00;99.90;;;;;;5078734;28;20063;-63
2021/06/26 01:54:33;;;;;;;1.40;1.27;;;20.10;99.90;;;;;;5069887;28;20060;-66
2021/06/26 01:56:58;;;;;;;1.95;1.40;;;20.10;99.90;;;;;;5081590;28;20063;-66
2021/06/26 01:59:24;;;;;;;1.63;1.52;;;20.00;99.90;;;;;;5090905;28;20081;-63
2021/06/26 02:01:50;;;;;;;1.42;1.15;;;20.00;99.90;;;;;;5077998;28;20116;-63
2021/06/26 02:04:15;;;;;;;2.50;1.60;;;20.00;99.90;;;;;;5072895;28;20070;-65
2021/06/26 02:06:41;;;;;;;2.08;1.55;;;20.00;99.90;;;;;;5091352;28;20395;-67
2021/06/26 02:09:07;;;;;;;1.60;1.38;;;20.00;99.90;;;;;;5091255;28;20024;-63
2021/06/26 02:11:34;;;;;;;2.60;1.40;;;20.00;99.90;;;;;;5079219;28;20024;-63
2021/06/26 02:14:00;;;;;;;1.90;1.50;;;20.00;99.90;;;;;;5071605;28;20111;-62
2021/06/26 02:16:26;;;;;;;1.75;1.40;;;20.00;99.90;;;;;;5071009;28;20103;-63
2021/06/26 02:18:53;;;;;;;2.10;1.30;;;20.00;99.90;;;;;;5091852;28;20035;-64
2021/06/26 02:21:19;;;;;;;1.70;1.30;;;20.00;99.90;;;;;;5075350;28;20025;-63
2021/06/26 02:23:45;;;;;;;2.55;1.50;;;20.00;99.90;;;;;;5071282;28;20032;-66
2021/06/26 02:26:10;;;;;;;1.75;1.30;;;20.00;99.90;;;;;;5071309;28;20093;-67
2021/06/26 02:28:36;;;;;;;1.23;1.13;;;20.00;99.90;;;;;;5089069;28;20486;-64
2021/06/26 02:31:02;;;;;;;2.22;1.42;;;20.00;99.90;;;;;;5091511;28;20485;-63
2021/06/26 02:33:27;;;;;;;1.60;1.33;;;19.90;99.90;;;;;;5073756;28;20384;-62
2021/06/26 02:35:53;;;;;;;1.98;1.42;;;19.90;99.90;;;;;;5072210;28;20025;-62
2021/06/26 02:38:18;;;;;;;1.40;1.30;;;19.90;99.90;;;;;;5086728;28;20464;-64
2021/06/26 02:40:44;;;;;;;1.67;1.20;;;19.90;99.90;;;;;;5090763;28;20036;-64
2021/06/26 02:43:10;;;;;;;2.30;1.40;;;19.90;99.90;;;;;;5091324;28;20020;-65
2021/06/26 02:45:35;;;;;;;2.78;1.60;;;19.90;99.90;;;;;;5078402;28;20029;-62
2021/06/26 02:48:01;;;;;;;3.95;1.50;;;19.90;99.90;;;;;;5077715;28;20031;-67
2021/06/26 02:50:26;;;;;;;2.03;1.50;;;19.90;99.90;;;;;;5079037;28;20027;-66
2021/06/26 02:52:52;;;;;;;1.50;1.40;;;19.90;99.90;;;;;;5069362;28;20028;-66
2021/06/26 02:55:18;;;;;;;1.52;1.10;;;19.90;99.90;;;;;;5071224;28;20050;-64
2021/06/26 02:57:43;;;;;;;1.90;1.33;;;19.80;99.90;;;;;;5070226;28;20067;-63
2021/06/26 03:00:09;;;;;;;1.85;1.30;;;19.80;99.90;;;;;;5073269;28;20039;-62
2021/06/26 03:02:35;;;;;;;1.25;1.02;;;19.90;99.90;;;;;;5090420;28;20024;-62
2021/06/26 03:05:01;;;;;;;1.40;1.27;;;19.90;99.90;;;;;;5085956;28;20043;-63
2021/06/26 03:07:27;;;;;;;1.38;1.27;;;19.80;99.90;;;;;;5092054;28;20039;-63
2021/06/26 03:09:52;;;;;;;2.65;1.30;;;19.90;99.90;;;;;;5094896;28;20506;-62
2021/06/26 03:12:18;;;;;;;1.42;1.17;;;19.90;99.90;;;;;;5094716;28;20036;-63
2021/06/26 03:14:44;;;;;;;1.65;1.17;;;19.80;99.90;;;;;;5093803;28;20519;-65
2021/06/26 03:17:10;;;;;;;1.63;1.30;;;19.80;99.90;;;;;;5079153;28;20032;-67
2021/06/26 03:19:37;;;;;;;1.35;1.23;;;19.90;99.90;;;;;;5074055;28;20029;-66
2021/06/26 03:22:03;;;;;;;2.50;1.10;;;19.90;99.90;;;;;;5075916;28;20052;-63
2021/06/26 03:24:28;;;;;;;1.48;1.38;;;19.80;99.90;;;;;;5074128;28;20040;-62
2021/06/26 03:26:56;;;;;;;3.03;1.40;;;19.90;99.90;;;;;;5076092;28;20028;-63
2021/06/26 03:29:22;;;;;;;1.20;1.10;;;19.80;99.90;;;;;;5074234;28;20025;-62
2021/06/26 03:31:48;;;;;;;1.20;1.00;;;19.80;99.90;;;;;;5074597;28;20024;-63
2021/06/26 03:34:13;;;;;;;1.50;1.25;;;19.80;99.90;;;;;;5074157;28;20408;-66
2021/06/26 03:36:39;;;;;;;2.58;1.20;;;19.80;99.90;;;;;;5074382;28;20442;-67
2021/06/26 03:39:05;;;;;;;2.15;1.50;;;19.80;99.90;;;;;;5089089;28;20028;-64
2021/06/26 03:41:31;;;;;;;2.33;1.40;;;19.80;99.90;;;;;;5080340;28;20036;-67
2021/06/26 03:43:58;;;;;;;1.85;1.30;;;19.80;99.90;;;;;;5074433;28;20099;-67
2021/06/26 03:46:25;;;;;;;1.52;1.38;;;19.80;99.90;;;;;;5073879;28;20115;-65
2021/06/26 03:48:51;;;;;;;1.60;1.30;;;19.80;99.90;;;;;;5085471;28;20024;-65
2021/06/26 03:51:16;;;;;;;2.60;1.23;;;19.80;99.90;;;;;;5088507;28;20120;-66
2021/06/26 03:53:42;;;;;;;1.35;1.20;;;19.80;99.90;;;;;;5072086;28;20358;-65
2021/06/26 03:56:08;;;;;;;1.75;1.10;;;19.80;99.90;;;;;;5074063;28;20174;-66
2021/06/26 03:58:34;;;;;;;1.70;1.48;;;19.80;99.90;;;;;;5073591;28;20450;-64
2021/06/26 04:01:00;;;;;;;1.77;1.10;;;19.80;99.90;;;;;;5079948;28;20028;-67
2021/06/26 04:03:26;;;;;;;1.17;1.05;;;19.70;99.90;;;;;;5092665;28;20376;-64
2021/06/26 04:05:51;;;;;;;1.48;1.10;;;19.80;99.90;;;;;;5093933;28;20028;-65
2021/06/26 04:08:17;;;;;;;1.55;1.15;;;19.80;99.90;;;;;;5082617;28;20016;-64
2021/06/26 04:10:43;;;;;;;1.65;1.27;;;19.70;99.90;;;;;;5073188;28;20035;-64
2021/06/26 04:13:09;;;;;;;1.95;1.20;;;19.70;99.90;;;;;;5073531;28;20467;-62
2021/06/26 04:15:35;;;;;;;1.38;1.20;;;19.80;99.90;;;;;;5071629;28;20384;-65
2021/06/26 04:18:02;;;;;;;1.10;1.00;;;19.70;99.90;;;;;;5081683;28;20028;-61
2021/06/26 04:20:27;;;;;;;1.40;1.27;;;19.80;99.90;;;;;;5092217;28;20028;-62
2021/06/26 04:22:53;;;;;;;1.50;1.30;;;19.80;99.90;;;;;;5073039;28;20476;-65
2021/06/26 04:25:20;;;;;;;1.38;1.27;;;19.70;99.90;;;;;;5073230;28;20028;-65
2021/06/26 04:27:45;;;;;;;1.88;1.35;;;19.70;99.90;;;;;;5075264;28;20024;-66
2021/06/26 04:30:13;;;;;;;2.42;1.40;;;19.70;99.90;;;;;;5073143;28;20036;-66
2021/06/26 04:32:40;;;;;;;1.63;1.10;;;19.70;99.90;;;;;;5073073;28;20435;-64
2021/06/26 04:35:08;;;;;;;1.60;1.40;;;19.70;99.90;;;;;;5072813;28;20056;-65
2021/06/26 04:37:34;;;;;;;1.63;1.17;;;19.70;99.90;;;;;;5076963;28;20027;-63
2021/06/26 04:40:00;;;;;;;2.35;1.13;;;19.70;99.90;;;;;;5092796;28;20441;-66
2021/06/26 04:42:26;;;;;;;3.85;1.10;;;19.70;99.90;;;;;;5091138;28;20036;-64
2021/06/26 04:44:51;;;;;;;1.45;0.98;;;19.70;99.90;;;;;;5092984;28;20024;-63
2021/06/26 04:47:17;;;;;;;1.33;1.20;;;19.70;99.90;;;;;;5091273;28;20036;-66
2021/06/26 04:49:43;;;;;;;1.60;1.05;;;19.70;99.90;;;;;;5072242;28;20487;-61
2021/06/26 04:52:09;;;;;;;1.48;1.35;;;19.80;99.90;;;;;;5076533;28;20028;-65
2021/06/26 04:54:36;;;;;;;2.22;1.23;;;19.70;99.90;;;;;;5078648;28;20024;-64
2021/06/26 04:57:02;;;;;;;1.42;1.08;;;19.80;99.90;;;;;;5072253;28;20029;-66
2021/06/26 04:59:27;;;;;;;1.02;0.93;;;19.80;99.90;;;;;;5072037;28;20358;-63
2021/06/26 05:01:53;;;;;;;1.85;1.30;;;19.70;99.90;;;;;;5082040;28;20035;-65
2021/06/26 05:04:20;;;;;;;1.60;1.10;;;19.80;99.90;;;;;;5092138;28;20028;-64
2021/06/26 05:06:45;;;;;;;1.52;1.05;;;19.70;99.90;;;;;;5092729;28;20545;-64
2021/06/26 05:09:11;;;;;;;1.67;1.20;;;19.70;99.90;;;;;;5088209;28;20024;-63
2021/06/26 05:11:37;;;;;;;1.58;1.33;;;19.70;99.90;;;;;;5072029;28;20025;-63
2021/06/26 05:14:03;;;;;;;1.00;0.90;;;19.70;99.90;;;;;;5071018;28;20484;-66
2021/06/26 05:16:28;;;;;;;1.15;1.05;;;19.70;99.90;;;;;;5072104;28;20103;-62
2021/06/26 05:18:54;;;;;;;1.13;1.02;;;19.70;99.90;;;;;;5073185;28;20020;-62
2021/06/26 05:21:20;;;;;;;1.90;1.23;;;19.80;99.90;;;;;;5073120;28;20028;-63
2021/06/26 05:23:46;;;;;;;2.75;1.20;;;19.80;99.90;;;;;;5083608;28;20028;-65
2021/06/26 05:26:12;;;;;;;1.98;1.20;;;19.80;99.90;;;;;;5090781;28;20048;-66
2021/06/26 05:28:38;;;;;;;2.35;1.20;;;19.80;99.90;;;;;;5090089;28;20051;-62
2021/06/26 05:31:04;;;;;;;1.40;1.00;;;19.70;99.90;;;;;;5075077;28;20365;-64
2021/06/26 05:33:30;;;;;;;1.67;1.00;;;19.80;99.90;;;;;;5077032;28;20024;-65
2021/06/26 05:35:56;;;;;;;1.52;0.80;;;19.80;99.90;;;;;;5091868;28;20019;-67
2021/06/26 05:38:22;;;;;;;3.40;1.05;;;19.70;99.90;;;;;;5091227;28;20063;-65
2021/06/26 05:40:51;;;;;;;1.33;1.00;;;19.80;99.90;;;;;;5075733;28;20043;-66
2021/06/26 05:43:16;;;;;;;1.20;1.10;;;19.80;99.90;;;;;;5071629;28;20495;-67
2021/06/26 05:45:42;;;;;;;1.13;1.02;;;19.80;99.90;;;;;;5071098;28;20036;-62
2021/06/26 05:48:08;;;;;;;1.00;0.90;;;19.80;99.90;;;;;;5071360;28;20115;-64
2021/06/26 05:50:34;;;;;;;1.10;1.00;;;19.80;99.90;;;;;;5081946;28;20026;-64
2021/06/26 05:53:00;;;;;;;2.10;1.00;;;19.80;99.90;;;;;;5089252;28;20046;-64
2021/06/26 05:55:27;;;;;;;1.30;1.10;;;19.80;99.90;;;;;;5079479;28;20445;-63
2021/06/26 05:57:53;;;;;;;1.63;1.00;;;19.80;99.90;;;;;;5072698;28;20120;-64
2021/06/26 06:00:21;;;;;;;1.02;0.90;;;19.80;99.90;;;;;;5084624;28;20099;-65
2021/06/26 06:02:48;;;;;;;1.38;1.10;;;19.80;99.90;;;;;;5087527;28;20032;-67
2021/06/26 06:05:14;;;;;;;1.17;1.00;;;19.90;99.90;;;;;;5072327;28;20115;-62
2021/06/26 06:07:43;;;;;;;1.48;0.93;;;19.80;99.90;;;;;;5076443;28;20502;-64
2021/06/26 06:10:11;;;;;;;2.45;0.98;;;19.90;99.90;;;;;;5071092;28;20032;-66
2021/06/26 06:12:38;;;;;;;1.35;0.90;;;19.80;99.90;;;;;;5070026;28;20021;-65
2021/06/26 06:15:06;;;;;;;1.38;0.90;;;19.90;99.90;;;;;;5070921;28;20032;-64
2021/06/26 06:17:32;;;;;;;1.08;0.93;;;19.90;99.90;;;;;;5080618;28;20058;-66
2021/06/26 06:19:58;;;;;;;1.10;0.85;;;19.90;99.90;;;;;;5081474;28;20064;-63
2021/06/26 06:22:24;;;;;;;1.92;1.13;;;19.90;99.90;;;;;;5071024;28;20423;-66
2021/06/26 06:24:51;;;;;;;1.75;0.73;;;19.90;99.90;;;;;;5083309;28;20028;-67
2021/06/26 06:27:16;;;;;;;0.95;0.75;;;19.90;99.90;;;;;;5081266;28;20075;-67
2021/06/26 06:29:42;;;;;;;2.58;1.02;;;19.90;99.90;;;;;;5070731;28;20059;-66
2021/06/26 06:32:08;;;;;;;1.95;0.90;;;19.90;99.90;;;;;;5071255;28;20093;-63
2021/06/26 06:34:34;;;;;;;6.57;1.08;;;19.90;99.90;;;;;;5070918;28;20429;-62
2021/06/26 06:36:59;;;;;;;2.45;0.98;;;19.90;99.90;;;;;;5074482;28;20418;-67
2021/06/26 06:39:26;;;;;;;5.45;1.10;;;19.90;99.90;;;;;;5074271;28;20037;-63
2021/06/26 06:41:52;;;;;;;1.35;0.85;;;19.90;99.90;;;;;;5085958;28;20024;-63
2021/06/26 06:44:17;;;;;;;2.03;1.02;;;19.90;99.90;;;;;;5093983;28;20027;-64
2021/06/26 06:46:43;;;;;;;2.80;1.00;;;20.00;99.90;;;;;;5091722;28;20040;-63
2021/06/26 06:49:08;;;;;;;3.00;1.17;;;20.00;99.90;;;;;;5080917;28;20028;-66
2021/06/26 06:51:36;;;;;;;4.10;0.90;;;20.00;99.90;;;;;;5094665;28;20024;-63
2021/06/26 06:54:02;;;;;;;2.10;0.98;;;20.00;99.90;;;;;;5086198;28;20449;-64
2021/06/26 06:56:27;;;;;;;3.40;0.88;;;20.00;99.90;;;;;;5073860;28;20048;-66
2021/06/26 06:58:53;;;;;;;7.63;1.00;;;20.00;99.90;;;;;;5074009;28;20032;-68
2021/06/26 07:01:18;;;;;;;2.60;1.10;;;20.10;99.90;;;;;;5074209;28;20500;-71
2021/06/26 07:03:44;;;;;;;2.05;1.20;;;20.00;99.90;;;;;;5073821;28;20020;-68
2021/06/26 07:06:09;;;;;;;5.65;1.20;;;20.10;99.90;;;;;;5077472;28;20040;-65
2021/06/26 07:08:35;;;;;;;2.78;1.17;;;20.10;99.90;;;;;;5074010;28;20071;-68
2021/06/26 07:11:01;;;;;;;3.70;1.00;;;20.10;99.90;;;;;;5074481;28;20124;-68
2021/06/26 07:13:26;;;;;;;3.35;1.38;;;20.10;99.90;;;;;;5074039;28;20021;-70
2021/06/26 07:15:52;;;;;;;1.60;0.90;;;20.10;99.90;;;;;;5074686;28;20365;-67
2021/06/26 07:18:17;;;;;;;3.25;1.23;;;20.10;99.90;;;;;;5074804;28;20081;-67
2021/06/26 07:20:43;;;;;;;4.60;1.20;;;20.10;99.90;;;;;;5074154;28;20066;-64
2021/06/26 07:23:09;;;;;;;1.25;1.00;;;20.10;99.90;;;;;;5074352;28;20017;-68
2021/06/26 07:25:34;;;;;;;3.05;1.13;;;20.10;99.90;;;;;;5073809;28;20029;-69
2021/06/26 07:28:00;;;;;;;2.22;1.13;;;20.10;99.90;;;;;;5074333;28;20465;-65
2021/06/26 07:30:26;;;;;;;3.08;1.13;;;20.10;99.90;;;;;;5074086;28;20031;-66
2021/06/26 07:32:51;;;;;;;5.30;1.27;;;20.10;99.90;;;;;;5075411;28;20063;-69
2021/06/26 07:35:17;;;;;;;5.45;1.40;;;20.10;99.90;;;;;;5074053;28;20017;-66
2021/06/26 07:37:44;;;;;;;3.33;1.25;;;20.10;99.90;;;;;;5073876;28;20060;-61
2021/06/26 07:40:12;;;;;;;5.38;1.40;;;20.10;99.90;;;;;;5074008;28;20035;-63
2021/06/26 07:42:38;;;;;;;4.45;1.75;;;20.10;99.90;;;;;;5073909;28;20064;-62
2021/06/26 07:45:05;;;;;;;7.35;1.73;;;20.10;99.90;;;;;;5073919;28;20032;-67
2021/06/26 07:47:30;;;;;;;4.47;1.65;;;20.10;99.90;;;;;;5074891;28;20032;-61
2021/06/26 07:49:56;;;;;;;3.28;1.58;;;20.10;99.90;;;;;;5077203;28;20517;-67
2021/06/26 07:52:22;;;;;;;4.97;1.45;;;20.10;99.90;;;;;;5093960;28;20020;-69
2021/06/26 07:54:50;;;;;;;4.97;1.20;;;20.20;99.90;;;;;;5083339;28;20033;-66
2021/06/26 07:57:16;;;;;;;5.45;1.70;;;20.10;99.90;;;;;;5073975;28;20036;-65
2021/06/26 07:59:41;;;;;;;3.03;1.60;;;20.10;99.90;;;;;;5073217;28;20024;-67
2021/06/26 08:02:07;;;;;;;4.65;2.13;;;20.10;99.90;;;;;;5073713;28;20099;-66
2021/06/26 08:04:33;;;;;;;4.40;1.83;;;20.20;99.90;;;;;;5073440;28;20380;-67
2021/06/26 08:06:58;;;;;;;3.03;1.77;;;20.20;99.90;;;;;;5073379;28;20040;-68
2021/06/26 08:09:24;;;;;;;5.45;1.90;;;20.30;99.90;;;;;;5073230;28;20036;-68
2021/06/26 08:11:50;;;;;;;6.05;2.00;;;20.20;99.90;;;;;;5073548;28;20024;-66
2021/06/26 08:14:15;;;;;;;1.83;1.55;;;20.20;99.90;;;;;;5072898;28;20103;-67
2021/06/26 08:16:41;;;;;;;2.75;1.48;;;20.20;99.90;;;;;;5072336;28;20024;-67
2021/06/26 08:19:07;;;;;;;2.38;1.55;;;20.20;99.90;;;;;;5073367;28;20062;-68
2021/06/26 08:21:32;;;;;;;2.38;1.30;;;20.20;99.90;;;;;;5076086;28;20095;-67
2021/06/26 08:23:58;;;;;;;2.38;1.40;;;20.20;99.90;;;;;;5069574;28;20107;-67
2021/06/26 08:26:23;;;;;;;2.05;1.15;;;20.20;99.90;;;;;;5071779;28;20072;-67
2021/06/26 08:28:49;;;;;;;6.88;1.42;;;20.30;99.90;;;;;;5072871;28;20032;-67
2021/06/26 08:31:15;;;;;;;3.38;1.55;;;20.30;99.90;;;;;;5072926;28;20476;-67
2021/06/26 08:33:41;;;;;;;3.28;1.38;;;20.30;99.90;;;;;;5072754;28;20029;-66
2021/06/26 08:36:07;;;;;;;3.17;1.05;;;20.30;99.90;;;;;;5072854;28;20477;-67
2021/06/26 08:38:33;;;;;;;2.15;1.17;;;20.30;99.90;;;;;;5073301;28;20028;-68
2021/06/26 08:40:59;;;;;;;1.33;1.00;;;20.30;99.90;;;;;;5073028;28;20040;-67
2021/06/26 08:43:27;;;;;;;1.63;1.20;;;20.30;99.90;;;;;;5072672;28;20482;-67
2021/06/26 08:45:53;;;;;;;2.35;1.00;;;20.30;99.90;;;;;;5072305;28;20040;-67
2021/06/26 08:48:20;;;;;;;2.92;1.00;;;20.30;99.90;;;;;;5073213;28;20021;-66
2021/06/26 08:50:45;;;;;;;1.83;0.90;;;20.30;99.90;;;;;;5072948;28;20028;-66
2021/06/26 08:53:11;;;;;;;1.95;1.00;;;20.30;99.90;;;;;;5072670;28;20469;-67
2021/06/26 08:55:37;;;;;;;3.80;1.00;;;20.30;99.90;;;;;;5072434;28;20035;-65
2021/06/26 08:58:04;;;;;;;2.92;1.10;;;20.30;99.90;;;;;;5103367;27;20040;-65
2021/06/26 09:00:30;;;;;;;1.70;1.20;;;20.30;99.90;;;;;;5071511;28;20096;-65
2021/06/26 09:03:13;;;;;;;1.27;1.13;;;20.30;99.90;;;;;;5070887;28;20163;-65
2021/06/26 09:05:40;;;;;;;4.03;1.00;;;20.40;99.90;;;;;;5071214;28;20037;-66
2021/06/26 09:08:11;;;;;;;3.38;0.90;;;20.40;99.90;;;;;;5072449;28;20032;-65
2021/06/26 09:10:38;;;;;;;2.63;1.20;;;20.40;99.90;;;;;;5072127;28;20061;-64
2021/06/26 09:13:18;;;;;;;2.17;0.98;;;20.40;99.90;;;;;;5071747;28;20032;-64
2021/06/26 09:15:45;;;;;;;5.68;0.90;;;20.40;99.90;;;;;;5052022;28;20033;-65
2021/06/26 09:18:17;;;;;;;2.58;1.00;;;20.40;99.90;;;;;;5069553;28;20047;-65
2021/06/26 09:20:46;;;;;;;2.67;1.13;;;20.50;99.90;;;;;;5071596;28;20392;-66
2021/06/26 09:23:29;;;;;;;2.05;1.00;;;20.50;99.90;;;;;;5070719;28;20041;-65
2021/06/26 09:26:04;;;;;;;1.65;0.90;;;20.50;99.90;;;;;;5071564;28;20043;-65
2021/06/26 09:28:29;;;;;;;1.92;0.73;;;20.50;99.90;;;;;;5071494;28;20021;-65
2021/06/26 09:30:55;;;;;;;3.08;1.00;;;20.50;99.90;;;;;;5071992;28;20376;-66
2021/06/26 09:33:26;;;;;;;1.48;0.85;;;20.50;99.90;;;;;;5071674;28;20102;-66
2021/06/26 09:36:02;;;;;;;1.40;0.80;;;20.50;99.90;;;;;;5071929;28;20162;-66
2021/06/26 09:38:30;;;;;;;2.35;0.90;;;20.50;99.90;;;;;;5071051;28;20100;-66
2021/06/26 09:40:56;;;;;;;2.08;0.85;;;20.60;99.90;;;;;;5071591;28;20032;-66
2021/06/26 09:43:27;;;;;;;1.85;0.70;;;20.60;99.90;;;;;;5071530;28;20021;-66
2021/06/26 09:46:05;;;;;;;2.17;1.02;;;20.60;99.90;;;;;;5071629;28;20491;-66
2021/06/26 09:48:31;;;;;;;3.17;0.90;;;20.60;99.90;;;;;;5071518;28;20380;-66
2021/06/26 09:50:57;;;;;;;1.60;0.80;;;20.60;99.90;;;;;;5071736;28;20086;-65
2021/06/26 09:53:22;;;;;;;2.50;0.90;;;20.60;99.90;;;;;;5071377;28;20028;-67
2021/06/26 09:55:53;;;;;;;2.03;0.80;;;20.60;99.90;;;;;;5072077;28;20025;-65
2021/06/26 09:58:19;;;;;;;2.67;1.00;;;20.60;99.90;;;;;;5072015;28;20151;-65
2021/06/26 10:00:46;;;;;;;1.88;0.90;;;20.60;99.90;;;;;;5071880;28;20444;-65
2021/06/26 10:03:17;;;;;;;0.90;0.68;;;20.70;99.90;;;;;;5071095;28;20024;-67
2021/06/26 10:05:47;;;;;;;0.90;0.68;;;20.70;99.90;;;;;;5075199;28;20028;-67
2021/06/26 10:08:15;;;;;;;1.75;0.70;;;20.70;99.90;;;;;;5071131;28;20490;-67
2021/06/26 10:10:41;;;;;;;1.45;0.88;;;20.70;99.90;;;;;;5080110;28;20017;-66
2021/06/26 10:13:11;;;;;;;2.03;0.65;;;20.60;99.90;;;;;;5072548;28;20036;-66
2021/06/26 10:15:37;;;;;;;1.00;0.82;;;20.70;99.90;;;;;;5071070;28;20468;-66
2021/06/26 10:18:03;;;;;;;1.92;0.80;;;20.70;99.90;;;;;;5071392;28;20051;-66
2021/06/26 10:20:29;;;;;;;3.10;0.95;;;20.70;99.90;;;;;;5070275;28;20024;-66
2021/06/26 10:23:00;;;;;;;2.05;0.75;;;20.70;99.90;;;;;;5071531;28;20051;-66
2021/06/26 10:25:33;;;;;;;3.72;0.90;;;20.70;99.90;;;;;;5070976;28;20016;-67
2021/06/26 10:28:03;;;;;;;;;;;20.70;99.90;;;;;;5071326;28;20028;-66
2021/06/26 10:30:29;;;;;;;2.20;1.00;;;20.80;99.90;;;;;;5071027;28;19908;-67
2021/06/26 10:33:00;;;;;;;2.92;1.02;;;20.80;99.90;;;;;;5070823;28;20029;-67
2021/06/26 10:35:28;;;;;;;2.60;0.85;;;20.80;99.90;;;;;;5069263;28;20067;-67
2021/06/26 10:38:09;;;;;;;2.80;1.13;;;20.80;99.90;;;;;;5074027;28;20017;-66
2021/06/26 10:40:50;;;;;;;2.88;1.00;;;20.80;99.90;;;;;;5081037;28;20533;-67
2021/06/26 10:43:32;;;;;;;2.70;1.17;;;20.80;99.90;;;;;;5070916;28;20025;-67
2021/06/26 10:46:13;;;;;;;3.30;0.90;;;20.80;99.90;;;;;;5071092;28;20043;-66
2021/06/26 10:48:40;;;;;;;2.15;1.10;;;20.80;99.90;;;;;;5070785;28;20035;-67
2021/06/26 10:51:07;;;;;;;3.75;1.10;;;20.80;99.90;;;;;;5071055;28;20067;-67
2021/06/26 10:53:35;;;;;;;3.33;1.27;;;20.80;99.90;;;;;;5070809;28;20172;-67
2021/06/26 10:56:10;;;;;;;4.38;1.30;;;20.80;99.90;;;;;;5070923;28;20032;-66
2021/06/26 10:58:42;;;;;;;3.28;1.27;;;20.80;99.90;;;;;;5070912;28;20027;-66
2021/06/26 11:01:15;;;;;;;4.32;1.30;;;20.80;99.90;;;;;;5070994;28;20024;-66
2021/06/26 11:03:41;;;;;;;4.72;1.38;;;20.90;99.90;;;;;;5073670;28;20107;-65
2021/06/26 11:06:15;;;;;;;3.95;1.00;;;20.90;99.90;;;;;;5070400;28;20048;-64
2021/06/26 11:08:41;;;;;;;3.85;1.25;;;20.90;99.90;;;;;;5070393;28;20024;-67
2021/06/26 11:11:06;;;;;;;4.25;1.50;;;20.90;99.90;;;;;;5070888;28;20032;-66
2021/06/26 11:13:32;;;;;;;4.10;1.40;;;21.00;99.90;;;;;;5070596;28;20078;-66
2021/06/26 11:16:06;;;;;;;2.50;1.05;;;21.00;99.90;;;;;;5070491;28;20056;-66
2021/06/26 11:18:33;;;;;;;2.72;1.10;;;20.90;99.90;;;;;;5070436;28;20020;-65
2021/06/26 11:21:02;;;;;;;2.80;1.15;;;21.00;99.90;;;;;;5070629;28;20029;-68
2021/06/26 11:23:28;;;;;;;2.30;1.02;;;21.00;99.90;;;;;;5070270;28;20016;-68
2021/06/26 11:26:04;;;;;;;2.50;1.10;;;21.00;99.90;;;;;;5072768;28;20041;-70
2021/06/26 11:28:40;;;;;;;3.13;1.20;;;21.00;99.90;;;;;;5074083;28;20529;-69
2021/06/26 11:31:06;;;;;;;4.63;1.33;;;21.00;99.90;;;;;;5074318;28;20031;-69
2021/06/26 11:33:41;;;;;;;4.82;1.30;;;21.10;99.90;;;;;;5073959;28;20017;-69
2021/06/26 11:36:14;;;;;;;3.40;1.15;;;21.10;99.90;;;;;;5074015;28;20016;-67
2021/06/26 11:38:40;;;;;;;3.33;1.30;;;21.10;99.90;;;;;;5074194;28;20107;-67
2021/06/26 11:41:11;;;;;;;4.50;1.42;;;21.10;99.90;;;;;;5074167;28;20468;-67
2021/06/26 11:43:38;;;;;;;2.97;1.38;;;21.20;99.90;;;;;;5073876;28;20031;-67
2021/06/26 11:46:05;;;;;;;2.47;1.48;;;21.10;99.90;;;;;;5073805;28;20027;-67
2021/06/26 11:48:32;;;;;;;3.70;1.40;;;21.10;99.90;;;;;;5072576;28;20111;-67
2021/06/26 11:51:05;;;;;;;4.07;1.58;;;21.20;99.90;;;;;;5073955;28;20591;-66
2021/06/26 11:53:35;;;;;;;2.92;1.52;;;21.10;99.90;;;;;;5073743;28;20036;-68
2021/06/26 11:56:02;;;;;;;3.65;1.63;;;21.10;99.90;;;;;;5072684;28;20043;-67
2021/06/26 11:58:41;;;;;;;3.05;1.55;;;21.20;99.90;;;;;;5070054;28;20064;-67
2021/06/26 12:01:12;;;;;;;3.97;1.50;;;21.20;99.90;;;;;;5073770;28;20024;-67
2021/06/26 12:03:38;;;;;;;3.10;1.60;;;21.20;99.90;;;;;;5073538;28;20354;-67
2021/06/26 12:06:07;;;;;;;2.33;1.27;;;21.20;99.90;;;;;;5073569;28;20032;-68
2021/06/26 12:08:46;;;;;;;2.60;1.23;;;21.20;99.90;;;;;;5073057;28;20028;-67
2021/06/26 12:11:19;;;;;;;3.50;1.20;;;21.20;99.90;;;;;;5073446;28;20504;-67
2021/06/26 12:13:47;;;;;;;3.60;1.73;;;21.30;99.90;;;;;;5072746;28;20021;-67
2021/06/26 12:16:24;;;;;;;3.00;1.13;;;21.30;99.90;;;;;;5073669;28;20032;-67
2021/06/26 12:18:53;;;;;;;2.78;1.50;;;21.30;99.90;;;;;;5072098;28;20095;-67
2021/06/26 12:21:21;;;;;;;3.83;1.77;;;21.30;99.90;;;;;;5073053;28;20082;-67
2021/06/26 12:23:49;;;;;;;3.17;2.08;;;21.30;99.90;;;;;;5073376;28;20040;-67
2021/06/26 12:26:18;;;;;;;3.28;2.10;;;21.30;99.90;;;;;;5072882;28;20036;-67
2021/06/26 12:28:44;;;;;;;4.85;2.30;;;21.30;99.90;;;;;;5071618;28;20024;-69
2021/06/26 12:31:10;;;;;;;4.78;2.42;;;21.40;99.90;;;;;;5071816;28;20495;-67
2021/06/26 12:33:36;;;;;;;4.50;2.58;;;21.40;99.90;;;;;;5071295;28;20031;-67
2021/06/26 12:36:12;;;;;;;4.45;2.30;;;21.40;99.90;;;;;;5072305;28;20029;-69
2021/06/26 12:38:38;;;;;;;4.43;2.47;;;21.40;99.90;;;;;;5071480;28;20032;-69
2021/06/26 12:41:04;;;;;;;4.15;2.47;;;21.40;99.90;;;;;;5072636;28;20111;-68
2021/06/26 12:43:34;;;;;;;3.47;2.30;;;21.40;99.90;;;;;;5071736;28;20130;-69
2021/06/26 12:46:00;;;;;;;6.50;2.92;;;21.40;99.90;;;;;;5069616;28;20484;-69
2021/06/26 12:48:27;;;;;;;4.15;2.80;;;21.50;99.90;;;;;;5070921;28;20020;-68